Valrico, FL

4:56 PM EDT on July 31, 2015 (GMT -0400)
Buckhorn Ridge | | Change Station
CLOSE
Current Station
Personal Weather Station
Location: Valrico, FL
Elevation: 95 ft
Nearby Weather Stations
Active Advisory: Flood Warning

Elev 95 ft 27.91 °N, 82.23 °W | Updated 8 seconds ago

Mostly Cloudy
Mostly Cloudy
83.6 °F
Feels Like 90 °F
N
11.0
Wind Variable Wind from WSW
Gusts 11.0 mph

Today
High -- | Low -- °F
--% Chance of Precip.
Yesterday
High -- | Low -- °F
Precip. -- in
6:51 AM 8:19 PM
Full, 100% visible
Pressure 29.99 in
Visibility 10.0 miles
Clouds Scattered Clouds 8000 ft
Mostly Cloudy 9000 ft
Scattered Clouds 12000 ft
Heat Index 90 °F
Dew Point 74 °F
Humidity 72%
Rainfall 1.19 in
Snow Depth Not available.
UV 7 out of 12
Pollen .60 out of 12
Air Quality Not available.
Flu Activity Not available.
METAR KPCM 312035Z AUTO 22006KT 10SM SCT080 BKN090 SCT120 29/24 A2999 RMK AO2

More Conditions Fewer Conditions

Pressure 29.99 in
Visibility 10.0 miles
Clouds Scattered Clouds 8000 ft
Mostly Cloudy 9000 ft
Scattered Clouds 12000 ft
Heat Index 90 °F
Dew Point 74 °F
Humidity 72%
Rainfall 1.19 in
Snow Depth Not available.
UV 7 out of 12
Pollen .60 out of 12
Air Quality Not available.
Flu Activity Not available.
METAR KPCM 312035Z AUTO 22006KT 10SM SCT080 BKN090 SCT120 29/24 A2999 RMK AO2

More Conditions Fewer Conditions

10-Day Weather Forecast

×

Almanac

Astronomy

Jul. 31, 2015 Rise Set
Actual Time
Civil Twilight
Nautical Twilight
Astronomical Twilight
Moon
Length of Visible Light
Length of Day
Tomorrow will be .
, % of the Moon is Illuminated

Today's Extremes

State Highs State Lows

Community

WunderPhotos

Upload Photos

1,842,737 photos uploaded!

WunderBlogs® & News

Nearby

Air Quality

  Air Quality AQ Index Pollutant
Not available.

Snow Depth

Station Depth Elevation

Earthquake Activity

City Distance Mag. Time & Date
Minimum magnitude displayed is 2.5.

Coastal Water Temperatures

Place Temperature

Stations

Nearby Weather Stations

Station Location Temp. Windchill Dew Point Humidity Wind Precip. Elev Updated Type
                   
Flood Warning
Statement as of 9:33 AM EDT on July 31, 2015

... Flood Warning extended until Monday afternoon... the Flood Warning continues
for
the Little Manatee River at Wimauma
* from this evening through Monday afternoon
* at 9 am Friday the stage was 10.2 feet
* flood stage is 11 feet
* the river is forecast to rise above flood stage by this evening and continue
to rise to near 12.7 feet by tomorrow evening.The river is expected to fall
below flood stage by Monday morning.
* Impact... at 13 feet... the canoe rental area floods.
* Impact... at 11 feet... the river overflows its banks.
* Flood history... this crest compares to a previous crest of 14.3 feet on Sep 26
2013.



             Fld observed forecast 8am
location stg stg day time Sat sun Mon Tue Wed

Little Manatee
Wimauma 11 10.2 Fri 09 am 12.4 12.4 10.9 9.7 8.7




Lat... Lon 2763 8231 2764 8243 2770 8243 2770 8231